Pagina principale
METAR-TAF:

METAR-TAF

Aeroporti :

Mafikeng, Sudafrica

latitudine: 25-47S, longitudine: 025-32E, altezza: 1281 m

Osservazione

Il bollettino è stato emesso 44 minuti fa, alle 17:00 UTC
Vento 3 kt da nord/nord-ovest
Temperature 14°C
Umidità 36%
Pressione 1029 hPa

METAR: FAMM 311700Z AUTO 33003KT //// // ////// 14/M01 Q1029

Ora: 19:44 (17:44 UTC)

Previsione

Il bollettino è stato emesso 8 ore e 44 minuti fa, alle 09:00 UTC
Previsione valida dal 31 alle 10 UTC al 31 alle 18 UTC
Vento 7 kt da nord/nord-ovest
Visibilità 10 km o più
nessuna nube inferiore a 1500 m e nessun cumulonembo

TAF: FAMM 310900Z 3110/3118 33007KT CAVOK TX26/3113Z TN06/3118Z

Osservazioni e previsioni meteorologiche di più di 4000 aeroporti (messaggi METAR e TAF).

Le stazioni disponibili sono rappresentate dai dischi gialli e rossi sulla carta.

Puntare il mouse per vedere il nome della stazione.

Clicca sopra per visualizzare le osservazioni e previsioni meteorologiche.

Per cambiare la mappa : fare clic sui pulsanti verdi con una croce nera per ingrandire, il pulsante verde con un trattino per diminuire, o sulla freccia verde per le mappe adiacenti.


METAR-TAF: